Fleurtje — PJCU — position and weather

sailwx.info

Track history (hours):
 
Tides and Currents Weather Stations Pressure Air Temp Water Temp Dewpoint Dewpoint Depression Visibility Wind Speed Wind Dir Waves Ship Positions

Fleurtje

187 foot 3-masted schooner.

Last reported at 2018-Nov-28 02:46 UTC. Time now 2018-Dec-18 11:35 UTC.
Position N 01°19' E 103°21'.
Warning: this ship's position is 20 days out of date.

Length 217 m; draft 10.4 m.

Type: Cargo ship. MMSI: 306129000.

Date/timePositionNaut miles runAvg speedWind from/ knotsBaromVisibWave heightAir tempDewpointWater temp
2018-Nov-28 02:46N 01°19' E 103°21'413.5
2018-Nov-28 02:30N 01°16' E 103°23'713.9
2018-Nov-28 02:00N 01°13' E 103°30'714.5
2018-Nov-28 01:31N 01°11' E 103°36'713.9
2018-Nov-28 01:00N 01°09' E 103°43'714.0
2018-Nov-28 00:30N 01°11' E 103°49'714.3
2018-Nov-28 00:00N 01°14' E 103°56'713.6
2018-Nov-27 23:31N 01°16' E 104°02'713.6
2018-Nov-27 23:00N 01°17' E 104°09'813.2
2018-Nov-27 22:25N 01°18' E 104°17'  
Track history (hours):
 
Tides and Currents Weather Stations Pressure Air Temp Water Temp Dewpoint Dewpoint Depression Visibility Wind Speed Wind Dir Waves Ship Positions

Fleurtje

187 foot 3-masted schooner.

Last reported at 2018-Nov-28 02:46 UTC. Time now 2018-Dec-18 11:35 UTC.
Position N 01°19' E 103°21'.
Warning: this ship's position is 20 days out of date.

Length 217 m; draft 10.4 m.

Type: Cargo ship. MMSI: 306129000.

Date/timePositionNaut miles runAvg speedWind from/ knotsBaromVisibWave heightAir tempDewpointWater temp
2018-Nov-28 02:46N 01°19' E 103°21'413.5
2018-Nov-28 02:30N 01°16' E 103°23'713.9
2018-Nov-28 02:00N 01°13' E 103°30'714.5
2018-Nov-28 01:31N 01°11' E 103°36'713.9
2018-Nov-28 01:00N 01°09' E 103°43'714.0
2018-Nov-28 00:30N 01°11' E 103°49'714.3
2018-Nov-28 00:00N 01°14' E 103°56'713.6
2018-Nov-27 23:31N 01°16' E 104°02'713.6
2018-Nov-27 23:00N 01°17' E 104°09'813.2
2018-Nov-27 22:25N 01°18' E 104°17'  

Dump ship's entire track history